createdAt,value
2018-10-19T00:02:03.688Z,62.69
2018-10-19T00:04:33.142Z,62.48
2018-10-19T00:07:02.646Z,62.31
2018-10-19T00:09:32.152Z,62.10
2018-10-19T00:12:01.548Z,62.33
2018-10-19T00:14:31.046Z,61.87
2018-10-19T00:17:00.616Z,62.24
2018-10-19T00:19:29.967Z,62.10
2018-10-19T00:21:59.368Z,62.28
2018-10-19T00:24:28.665Z,62.18
2018-10-19T00:26:58.171Z,62.44
2018-10-19T00:29:27.776Z,62.57
2018-10-19T00:31:57.177Z,62.46
2018-10-19T00:34:26.683Z,62.85
2018-10-19T00:36:56.003Z,62.96
2018-10-19T00:39:25.490Z,62.35
2018-10-19T00:41:54.778Z,62.47
2018-10-19T00:44:24.192Z,63.15
2018-10-19T00:46:53.615Z,63.20
2018-10-19T00:49:22.997Z,63.00
2018-10-19T00:51:52.304Z,62.80
2018-10-19T00:54:21.540Z,63.54
2018-10-19T00:56:50.836Z,64.06
2018-10-19T00:59:20.135Z,64.15
2018-10-19T01:01:49.488Z,64.56
2018-10-19T01:04:18.891Z,64.81
2018-10-19T01:06:48.292Z,65.06
2018-10-19T01:09:17.515Z,64.61
2018-10-19T01:11:46.890Z,64.46
2018-10-19T01:14:16.135Z,64.62
2018-10-19T01:16:45.596Z,63.93
2018-10-19T01:19:15.096Z,64.20
2018-10-19T01:21:44.379Z,64.29
2018-10-19T01:24:13.804Z,64.01
2018-10-19T01:26:43.207Z,64.43
2018-10-19T01:29:12.518Z,64.03
2018-10-19T01:31:41.932Z,64.22
2018-10-19T01:34:11.408Z,63.54
2018-10-19T01:36:43.485Z,64.39
2018-10-19T01:39:13.397Z,64.54
2018-10-19T01:41:43.350Z,64.95
2018-10-19T01:44:12.801Z,64.65
2018-10-19T01:46:46.505Z,64.81
2018-10-19T01:49:16.416Z,66.09
2018-10-19T01:51:45.715Z,67.62
2018-10-19T01:54:15.223Z,67.58
2018-10-19T01:56:44.867Z,68.96
2018-10-19T01:59:14.266Z,69.72
2018-10-19T02:01:43.686Z,70.65
2018-10-19T02:04:13.035Z,70.91
2018-10-19T02:06:42.435Z,70.30
2018-10-19T02:09:12.098Z,70.14
2018-10-19T02:11:41.336Z,69.97
2018-10-19T02:14:10.582Z,69.36
2018-10-19T02:16:40.046Z,70.18
2018-10-19T02:19:09.546Z,70.00
2018-10-19T02:21:38.802Z,70.80
2018-10-19T02:24:08.454Z,70.88
2018-10-19T02:26:37.748Z,71.20
2018-10-19T02:29:07.144Z,71.12
2018-10-19T02:31:36.455Z,71.51
2018-10-19T02:34:06.568Z,70.69
2018-10-19T02:36:35.976Z,70.96
2018-10-19T02:39:06.877Z,71.83
2018-10-19T02:41:36.622Z,72.24
2018-10-19T02:44:06.125Z,71.94
2018-10-19T02:46:35.528Z,71.86
2018-10-19T02:49:05.237Z,72.62
2018-10-19T02:51:34.846Z,72.55
2018-10-19T02:54:04.348Z,71.97
2018-10-19T02:56:33.954Z,71.72
2018-10-19T02:59:03.477Z,71.74
2018-10-19T03:01:32.765Z,71.64
2018-10-19T03:04:02.004Z,71.68
2018-10-19T03:06:31.459Z,70.96
2018-10-19T03:09:00.978Z,70.79
2018-10-19T03:11:30.434Z,71.02
2018-10-19T03:13:59.879Z,71.20
2018-10-19T03:16:29.272Z,71.72
2018-10-19T03:18:58.676Z,71.71
2018-10-19T03:21:28.078Z,72.30
2018-10-19T03:23:57.300Z,72.47
2018-10-19T03:26:26.677Z,72.39
2018-10-19T03:28:56.127Z,72.82
2018-10-19T03:31:25.560Z,72.00
2018-10-19T03:33:54.980Z,72.35
2018-10-19T03:36:24.486Z,72.17
2018-10-19T03:38:54.038Z,72.52
2018-10-19T03:41:23.494Z,71.49
2018-10-19T03:43:52.999Z,71.17
2018-10-19T03:46:22.288Z,71.02
2018-10-19T03:48:51.803Z,71.20
2018-10-19T03:51:21.307Z,71.23
2018-10-19T03:53:50.804Z,70.55
2018-10-19T03:56:20.316Z,70.49
2018-10-19T03:58:50.128Z,70.59
2018-10-19T04:01:19.412Z,71.12
2018-10-19T04:03:48.861Z,71.35
2018-10-19T04:06:18.436Z,72.18
2018-10-19T04:08:47.846Z,72.63
2018-10-19T04:11:17.269Z,71.93
2018-10-19T04:13:46.541Z,72.04
2018-10-19T04:16:15.940Z,72.41
2018-10-19T04:18:45.445Z,71.82
2018-10-19T04:21:15.045Z,72.71
2018-10-19T04:23:44.365Z,72.98
2018-10-19T04:26:13.776Z,72.37
2018-10-19T04:28:43.156Z,71.87
2018-10-19T04:31:12.403Z,72.69
2018-10-19T04:33:41.644Z,72.21
2018-10-19T04:36:11.497Z,72.37
2018-10-19T04:38:40.965Z,73.07
2018-10-19T04:41:10.493Z,72.41
2018-10-19T04:43:39.735Z,73.46
2018-10-19T04:46:09.174Z,73.53
2018-10-19T04:48:38.817Z,73.89
2018-10-19T04:51:08.815Z,73.12
2018-10-19T04:53:38.507Z,73.22
2018-10-19T04:56:08.011Z,73.94
2018-10-19T04:58:37.421Z,73.96
2018-10-19T05:01:06.954Z,74.98
2018-10-19T05:03:36.250Z,74.63
2018-10-19T05:06:05.992Z,73.81
2018-10-19T05:08:35.324Z,73.73
2018-10-19T05:11:05.056Z,73.70
2018-10-19T05:13:34.389Z,73.80
2018-10-19T05:16:03.734Z,74.30
2018-10-19T05:18:33.392Z,74.40
2018-10-19T05:21:02.991Z,74.13
2018-10-19T05:23:32.452Z,74.03
2018-10-19T05:26:01.914Z,74.79
2018-10-19T05:28:31.358Z,74.71
2018-10-19T05:31:00.866Z,74.64
2018-10-19T05:33:30.268Z,74.31
2018-10-19T05:35:59.624Z,74.87
2018-10-19T05:38:29.092Z,74.22
2018-10-19T05:40:58.601Z,74.34
2018-10-19T05:43:27.996Z,74.59
2018-10-19T05:45:57.580Z,74.44
2018-10-19T05:48:27.085Z,73.74
2018-10-19T05:50:56.661Z,74.02
2018-10-19T05:53:26.198Z,74.20
2018-10-19T05:55:55.619Z,73.90
2018-10-19T05:58:25.309Z,74.80
2018-10-19T06:00:55.016Z,74.96
2018-10-19T06:03:25.218Z,74.86
2018-10-19T06:05:55.031Z,74.59
2018-10-19T06:08:24.701Z,74.04
2018-10-19T06:10:54.950Z,74.82
2018-10-19T06:13:24.745Z,74.70
2018-10-19T06:15:54.565Z,74.37
2018-10-19T06:18:24.846Z,74.11
2018-10-19T06:20:55.101Z,74.24
2018-10-19T06:23:25.366Z,73.76
2018-10-19T06:25:56.016Z,73.13
2018-10-19T06:28:26.013Z,73.01
2018-10-19T06:30:55.882Z,72.78
2018-10-19T06:33:25.638Z,73.95
2018-10-19T06:35:55.473Z,74.34
2018-10-19T06:38:26.658Z,75.39
2018-10-19T06:40:56.427Z,75.56
2018-10-19T06:43:27.175Z,75.21
2018-10-19T06:45:57.316Z,74.96
2018-10-19T06:48:27.539Z,75.17
2018-10-19T06:50:57.201Z,74.66
2018-10-19T06:53:26.832Z,74.43
2018-10-19T06:55:56.925Z,74.14
2018-10-19T06:58:26.975Z,74.41
2018-10-19T07:00:56.735Z,74.44
2018-10-19T07:03:26.343Z,74.23
2018-10-19T07:05:56.259Z,74.55
2018-10-19T07:08:27.345Z,74.15
2018-10-19T07:10:57.170Z,74.77
2018-10-19T07:13:26.956Z,73.83
2018-10-19T07:15:56.730Z,73.21
2018-10-19T07:18:26.598Z,72.80
2018-10-19T07:20:56.560Z,72.33
2018-10-19T07:23:26.870Z,72.18
2018-10-19T07:25:57.011Z,72.02
2018-10-19T07:28:26.724Z,71.65
2018-10-19T07:30:56.514Z,71.32
2018-10-19T07:33:26.079Z,71.67
2018-10-19T07:35:55.633Z,71.01
2018-10-19T07:38:25.033Z,70.85
2018-10-19T07:40:54.550Z,70.63
2018-10-19T07:43:24.043Z,70.53
2018-10-19T07:45:53.302Z,70.54
2018-10-19T07:48:22.615Z,70.37
2018-10-19T07:50:52.043Z,70.38
2018-10-19T07:53:21.446Z,70.57
2018-10-19T07:55:50.746Z,70.43
2018-10-19T07:58:20.310Z,70.46
2018-10-19T08:00:50.173Z,70.17
2018-10-19T08:03:19.670Z,70.49
2018-10-19T08:05:49.039Z,69.72
2018-10-19T08:08:18.682Z,69.74
2018-10-19T08:10:47.979Z,69.80
2018-10-19T08:13:17.479Z,69.63
2018-10-19T08:15:46.703Z,70.29
2018-10-19T08:18:16.411Z,70.04
2018-10-19T08:20:46.104Z,69.70
2018-10-19T08:23:16.324Z,69.52
2018-10-19T08:25:46.259Z,68.99
2018-10-19T08:28:15.735Z,69.21
2018-10-19T08:30:45.135Z,68.79
2018-10-19T08:33:14.545Z,68.55
2018-10-19T08:35:43.998Z,68.34
2018-10-19T08:38:13.458Z,68.13
2018-10-19T08:40:42.754Z,68.01
2018-10-19T08:43:12.090Z,68.28
2018-10-19T08:45:41.444Z,67.77
2018-10-19T08:48:10.682Z,68.26
2018-10-19T08:50:40.144Z,67.33
2018-10-19T08:53:09.719Z,66.98
2018-10-19T08:55:39.256Z,67.19
2018-10-19T08:58:08.669Z,67.06
2018-10-19T09:00:38.059Z,67.20
2018-10-19T09:03:07.512Z,68.05
2018-10-19T09:05:36.863Z,67.89
2018-10-19T09:08:06.267Z,68.49
2018-10-19T09:10:35.567Z,68.13
2018-10-19T09:13:05.296Z,67.68
2018-10-19T09:15:34.880Z,67.27
2018-10-19T09:18:04.384Z,68.30
2018-10-19T09:20:33.631Z,67.29
2018-10-19T09:23:03.144Z,66.95
2018-10-19T09:25:32.383Z,67.33
2018-10-19T09:28:01.603Z,66.51
2018-10-19T09:30:30.982Z,66.34
2018-10-19T09:33:00.850Z,66.48
2018-10-19T09:35:30.192Z,66.32
2018-10-19T09:37:59.395Z,66.75
2018-10-19T09:40:28.863Z,66.47
2018-10-19T09:42:58.304Z,66.82
2018-10-19T09:45:27.703Z,66.08
2018-10-19T09:47:57.104Z,67.11
2018-10-19T09:50:26.576Z,66.78
2018-10-19T09:52:56.018Z,66.69
2018-10-19T09:55:25.516Z,65.99
2018-10-19T09:57:54.917Z,65.67
2018-10-19T10:00:29.603Z,65.18
2018-10-19T10:02:59.068Z,64.86
2018-10-19T10:05:28.365Z,64.97
2018-10-19T10:07:57.666Z,64.04
2018-10-19T10:10:27.353Z,63.92
2018-10-19T10:12:56.926Z,64.29
2018-10-19T10:15:26.254Z,63.05
2018-10-19T10:17:55.564Z,64.18
2018-10-19T10:20:25.065Z,61.14
2018-10-19T10:22:54.311Z,62.54
2018-10-19T10:25:23.721Z,61.61
2018-10-19T10:27:53.180Z,61.95
2018-10-19T10:30:22.437Z,61.21
2018-10-19T10:32:51.766Z,60.62
2018-10-19T10:35:21.192Z,60.53
2018-10-19T10:37:50.418Z,59.83
2018-10-19T10:40:19.718Z,60.33
2018-10-19T10:42:48.906Z,58.97
2018-10-19T10:45:18.145Z,60.34
2018-10-19T10:47:47.419Z,59.46
2018-10-19T10:50:16.859Z,57.91
2018-10-19T10:52:46.267Z,58.51
2018-10-19T10:55:15.614Z,59.68
2018-10-19T10:57:44.811Z,57.66
2018-10-19T11:00:14.161Z,58.09
2018-10-19T11:02:43.563Z,57.21
2018-10-19T11:05:12.970Z,56.87
2018-10-19T11:07:42.446Z,57.73
2018-10-19T11:10:11.720Z,57.12
2018-10-19T11:12:40.964Z,55.26
2018-10-19T11:15:11.319Z,54.72
2018-10-19T11:17:41.032Z,56.20
2018-10-19T11:20:10.814Z,54.82
2018-10-19T11:22:40.724Z,56.92
2018-10-19T11:25:10.910Z,54.21
2018-10-19T11:27:40.823Z,55.06
2018-10-19T11:30:10.931Z,55.57
2018-10-19T11:32:40.995Z,53.66
2018-10-19T11:35:10.864Z,55.21
2018-10-19T11:37:40.888Z,55.40
2018-10-19T11:40:29.577Z,55.31
2018-10-19T11:42:59.553Z,54.04
2018-10-19T11:45:30.878Z,54.92
2018-10-19T11:48:01.674Z,53.14
2018-10-19T11:50:31.587Z,54.33
2018-10-19T11:53:01.306Z,53.56
2018-10-19T11:55:31.379Z,52.83
2018-10-19T11:58:01.369Z,52.85
2018-10-19T12:00:31.484Z,52.98
2018-10-19T12:03:01.670Z,53.47
2018-10-19T12:05:31.685Z,53.44
2018-10-19T12:08:02.008Z,51.76
2018-10-19T12:10:32.104Z,52.23
2018-10-19T12:13:02.102Z,51.44
2018-10-19T12:15:32.406Z,51.77
2018-10-19T12:18:02.282Z,51.08
2018-10-19T12:20:32.374Z,51.64
2018-10-19T12:23:02.520Z,50.62
2018-10-19T12:25:32.557Z,51.02
2018-10-19T12:28:02.940Z,50.13
2018-10-19T12:30:32.910Z,48.31
2018-10-19T12:33:02.707Z,49.80
2018-10-19T12:35:33.218Z,49.68
2018-10-19T12:38:02.866Z,48.37
2018-10-19T12:40:32.856Z,50.52
2018-10-19T12:43:02.825Z,50.20
2018-10-19T12:46:43.538Z,49.35
2018-10-19T12:49:14.919Z,49.59
2018-10-19T12:51:44.781Z,49.21
2018-10-19T12:54:14.877Z,50.26
2018-10-19T12:56:44.715Z,48.63
2018-10-19T12:59:14.479Z,49.29
2018-10-19T13:01:44.689Z,49.49
2018-10-19T13:04:14.664Z,51.80
2018-10-19T13:06:44.331Z,51.15
2018-10-19T13:09:14.830Z,49.39
2018-10-19T13:11:44.681Z,50.29
2018-10-19T13:14:14.561Z,49.56
2018-10-19T13:16:44.569Z,50.23
2018-10-19T13:19:15.066Z,49.69
2018-10-19T13:21:44.972Z,50.83
2018-10-19T13:24:15.347Z,50.22
2018-10-19T13:26:45.474Z,49.71
2018-10-19T13:29:15.523Z,50.27
2018-10-19T13:31:45.881Z,49.64
2018-10-19T13:34:15.769Z,49.74
2018-10-19T13:36:46.191Z,49.75
2018-10-19T13:39:15.923Z,49.57
2018-10-19T13:41:46.006Z,48.89
2018-10-19T13:44:16.143Z,49.71
2018-10-19T13:46:46.475Z,49.75
2018-10-19T13:49:16.187Z,49.79
2018-10-19T13:51:46.377Z,49.49
2018-10-19T13:54:16.237Z,49.19
2018-10-19T13:56:45.956Z,49.86
2018-10-19T13:59:16.400Z,49.85
2018-10-19T14:01:46.659Z,50.20
2018-10-19T14:04:16.500Z,49.11
2018-10-19T14:06:46.675Z,49.12
2018-10-19T14:09:16.325Z,49.09
2018-10-19T14:11:46.623Z,49.43
2018-10-19T14:14:16.682Z,49.79
2018-10-19T14:16:47.132Z,50.03
2018-10-19T14:19:17.257Z,49.68
2018-10-19T14:21:46.883Z,50.41
2018-10-19T14:24:16.618Z,50.10
2018-10-19T14:26:47.027Z,49.90
2018-10-19T14:29:17.015Z,49.15
2018-10-19T14:31:47.077Z,49.65
2018-10-19T14:34:17.114Z,50.61
2018-10-19T14:36:47.155Z,49.71
2018-10-19T14:39:17.404Z,50.80
2018-10-19T14:41:47.246Z,50.05
2018-10-19T14:44:17.154Z,50.10
2018-10-19T14:46:47.132Z,49.13
2018-10-19T14:49:17.194Z,49.39
2018-10-19T14:51:47.442Z,49.84
2018-10-19T14:54:17.622Z,49.97
2018-10-19T14:56:49.289Z,48.77
2018-10-19T14:59:19.486Z,49.18
2018-10-19T15:01:50.599Z,48.61
2018-10-19T15:04:20.667Z,48.73
2018-10-19T15:06:50.421Z,48.92
2018-10-19T15:09:20.411Z,47.94
2018-10-19T15:11:49.948Z,48.54
2018-10-19T15:14:20.134Z,48.86
2018-10-19T15:16:50.276Z,48.48
2018-10-19T15:19:20.762Z,48.61
2018-10-19T15:21:50.940Z,48.38
2018-10-19T15:24:21.485Z,47.93
2018-10-19T15:26:51.206Z,48.53
2018-10-19T15:29:21.526Z,48.21
2018-10-19T15:31:51.215Z,48.35
2018-10-19T15:34:21.164Z,48.47
2018-10-19T15:36:51.140Z,49.00
2018-10-19T15:39:21.095Z,48.59
2018-10-19T15:41:51.016Z,49.17
2018-10-19T15:44:21.028Z,48.53
2018-10-19T15:46:51.159Z,48.89
2018-10-19T15:49:21.323Z,47.15
2018-10-19T15:51:51.249Z,47.44
2018-10-19T15:54:20.937Z,47.68
2018-10-19T15:56:50.854Z,47.92
2018-10-19T15:59:21.617Z,48.78
2018-10-19T16:01:52.276Z,47.06
2018-10-19T16:04:22.042Z,47.89
2018-10-19T16:06:51.864Z,48.23
2018-10-19T16:09:21.805Z,47.59
2018-10-19T16:11:51.845Z,47.59
2018-10-19T16:14:21.755Z,47.74
2018-10-19T16:16:51.685Z,48.18
2018-10-19T16:19:28.065Z,47.87
2018-10-19T16:21:58.239Z,48.09
2018-10-19T16:24:28.203Z,48.38
2018-10-19T16:26:58.703Z,48.33
2018-10-19T16:29:28.510Z,48.69
2018-10-19T16:31:58.575Z,49.28
2018-10-19T16:34:28.650Z,48.79
2018-10-19T16:36:58.793Z,48.75
2018-10-19T16:39:28.602Z,48.86
2018-10-19T16:41:58.865Z,48.99
2018-10-19T16:44:28.789Z,48.90
2018-10-19T16:46:58.540Z,49.99
2018-10-19T16:49:28.736Z,49.37
2018-10-19T16:51:58.519Z,49.80
2018-10-19T16:54:28.548Z,49.52
2018-10-19T16:56:58.664Z,49.68
2018-10-19T16:59:28.171Z,49.99
2018-10-19T17:01:58.098Z,49.94
2018-10-19T17:04:29.120Z,50.43
2018-10-19T17:06:58.919Z,49.77
2018-10-19T17:09:29.059Z,50.07
2018-10-19T17:11:59.813Z,49.59
2018-10-19T17:14:29.684Z,49.27
2018-10-19T17:16:59.825Z,50.57
2018-10-19T17:19:29.944Z,50.04
2018-10-19T17:21:59.618Z,50.03
2018-10-19T17:24:29.231Z,50.75
2018-10-19T17:27:00.155Z,50.30
2018-10-19T17:29:30.363Z,50.16
2018-10-19T17:31:59.978Z,49.50
2018-10-19T17:34:29.832Z,50.26
2018-10-19T17:37:00.305Z,50.36
2018-10-19T17:39:30.346Z,49.63
2018-10-19T17:42:00.149Z,49.78
2018-10-19T17:44:30.215Z,49.49
2018-10-19T17:47:00.731Z,50.41
2018-10-19T17:49:30.823Z,49.94
2018-10-19T17:52:00.842Z,49.84
2018-10-19T17:54:31.080Z,50.20
2018-10-19T17:57:01.221Z,50.51
2018-10-19T17:59:31.168Z,50.03
2018-10-19T18:02:01.858Z,49.83
2018-10-19T18:04:31.938Z,49.77
2018-10-19T18:07:02.745Z,50.45
2018-10-19T18:09:33.377Z,50.14
2018-10-19T18:12:03.387Z,50.56
2018-10-19T18:14:33.354Z,50.99
2018-10-19T18:17:03.218Z,50.37
2018-10-19T18:19:33.273Z,50.19
2018-10-19T18:22:03.529Z,50.93
2018-10-19T18:24:33.008Z,50.88
2018-10-19T18:27:02.334Z,51.76
2018-10-19T18:29:31.727Z,51.39
2018-10-19T18:32:01.073Z,52.08
2018-10-19T18:34:30.530Z,51.68
2018-10-19T18:36:59.841Z,51.67
2018-10-19T18:39:29.482Z,51.38
2018-10-19T18:41:59.196Z,50.85
2018-10-19T18:44:28.465Z,51.29
2018-10-19T18:46:58.050Z,51.96
2018-10-19T18:49:27.557Z,52.11
2018-10-19T18:51:57.463Z,51.47
2018-10-19T18:54:27.549Z,51.30
2018-10-19T18:56:56.999Z,51.70
2018-10-19T18:59:26.796Z,51.87
2018-10-19T19:01:56.819Z,51.60
2018-10-19T19:04:26.586Z,50.82
2018-10-19T19:06:57.924Z,50.71
2018-10-19T19:09:28.219Z,51.42
2018-10-19T19:11:58.084Z,52.11
2018-10-19T19:14:28.251Z,52.23
2018-10-19T19:16:58.426Z,51.25
2018-10-19T19:19:28.291Z,51.25
2018-10-19T19:21:57.906Z,51.42
2018-10-19T19:24:32.855Z,52.14
2018-10-19T19:27:02.747Z,52.39
2018-10-19T19:29:32.729Z,51.43
2018-10-19T19:32:02.770Z,51.46
2018-10-19T19:34:33.667Z,51.82
2018-10-19T19:37:03.630Z,52.10
2018-10-19T19:39:33.636Z,52.49
2018-10-19T19:42:08.532Z,52.56
2018-10-19T19:44:39.342Z,52.34
2018-10-19T19:47:13.719Z,51.91
2018-10-19T19:49:45.424Z,52.19
2018-10-19T19:52:18.395Z,51.76
2018-10-19T19:54:48.200Z,51.90
2018-10-19T19:57:18.029Z,52.57
2018-10-19T19:59:47.999Z,52.14
2018-10-19T20:02:17.548Z,52.96
2018-10-19T20:04:47.185Z,52.90
2018-10-19T20:07:17.002Z,53.61
2018-10-19T20:09:46.814Z,53.75
2018-10-19T20:12:16.267Z,53.76
2018-10-19T20:14:45.532Z,53.47
2018-10-19T20:17:15.152Z,53.65
2018-10-19T20:19:44.729Z,53.90
2018-10-19T20:22:14.236Z,53.75
2018-10-19T20:24:43.491Z,54.30
2018-10-19T20:27:12.744Z,54.13
2018-10-19T20:29:42.040Z,55.00
2018-10-19T20:32:11.511Z,54.50
2018-10-19T20:34:41.145Z,54.90
2018-10-19T20:37:10.746Z,55.06
2018-10-19T20:39:40.252Z,54.56
2018-10-19T20:42:09.657Z,54.02
2018-10-19T20:44:39.159Z,53.83
2018-10-19T20:47:08.701Z,53.49
2018-10-19T20:49:37.989Z,52.72
2018-10-19T20:52:07.466Z,53.39
2018-10-19T20:54:37.024Z,53.73
2018-10-19T20:57:06.330Z,54.38
2018-10-19T20:59:35.617Z,54.25
2018-10-19T21:02:05.143Z,54.11
2018-10-19T21:04:34.504Z,54.24
2018-10-19T21:07:03.770Z,53.88
2018-10-19T21:09:33.031Z,53.98
2018-10-19T21:12:02.356Z,54.63
2018-10-19T21:14:31.836Z,55.41
2018-10-19T21:17:01.067Z,54.76
2018-10-19T21:19:30.645Z,54.77
2018-10-19T21:21:59.775Z,54.90
2018-10-19T21:24:28.999Z,54.87
2018-10-19T21:26:58.483Z,54.28
2018-10-19T21:29:27.703Z,54.23
2018-10-19T21:31:56.956Z,54.98
2018-10-19T21:34:26.259Z,55.10
2018-10-19T21:36:55.780Z,57.32
2018-10-19T21:39:25.305Z,58.23
2018-10-19T21:41:54.768Z,57.68
2018-10-19T21:44:24.189Z,56.56
2018-10-19T21:46:53.888Z,55.87
2018-10-19T21:49:23.300Z,55.11
2018-10-19T21:51:52.518Z,55.03
2018-10-19T21:54:22.000Z,54.59
2018-10-19T21:56:51.298Z,55.11
2018-10-19T21:59:20.611Z,55.33
2018-10-19T22:01:49.862Z,56.15
2018-10-19T22:04:19.197Z,54.75
2018-10-19T22:06:48.599Z,54.90
2018-10-19T22:09:18.115Z,54.87
2018-10-19T22:11:47.338Z,55.13
2018-10-19T22:14:16.569Z,54.99
2018-10-19T22:16:45.900Z,54.47
2018-10-19T22:19:15.420Z,54.85
2018-10-19T22:21:44.702Z,55.06
2018-10-19T22:24:13.919Z,55.75
2018-10-19T22:26:43.143Z,54.95
2018-10-19T22:29:12.656Z,55.17
2018-10-19T22:31:41.866Z,55.63
2018-10-19T22:34:11.139Z,56.09
2018-10-19T22:36:40.388Z,55.70
2018-10-19T22:39:09.649Z,55.79
2018-10-19T22:41:38.913Z,55.98
2018-10-19T22:44:09.108Z,56.01
2018-10-19T22:46:38.412Z,57.28
2018-10-19T22:49:07.845Z,57.21
2018-10-19T22:51:37.113Z,58.02
2018-10-19T22:54:06.714Z,57.81
2018-10-19T22:56:36.255Z,57.60
2018-10-19T22:59:05.698Z,57.33
2018-10-19T23:01:35.042Z,57.69
2018-10-19T23:04:04.538Z,58.55
2018-10-19T23:06:33.815Z,58.40
2018-10-19T23:09:03.107Z,58.65
2018-10-19T23:11:32.745Z,58.77
2018-10-19T23:14:02.020Z,58.82
2018-10-19T23:16:31.240Z,58.95
2018-10-19T23:19:00.652Z,59.22
2018-10-19T23:21:30.077Z,58.91
2018-10-19T23:23:59.372Z,59.20
2018-10-19T23:26:28.605Z,59.55
2018-10-19T23:28:57.839Z,58.93
2018-10-19T23:31:27.530Z,59.06
2018-10-19T23:33:56.595Z,59.47
2018-10-19T23:36:26.241Z,59.50
2018-10-19T23:38:55.649Z,59.94
2018-10-19T23:41:24.885Z,59.67
2018-10-19T23:43:54.390Z,59.54
2018-10-19T23:46:23.636Z,59.40
2018-10-19T23:48:52.980Z,59.82
2018-10-19T23:51:22.164Z,59.89
2018-10-19T23:53:51.388Z,60.10
2018-10-19T23:56:20.636Z,59.71
2018-10-19T23:58:49.854Z,59.49
